Time;durP1;ratioP1;P1;durP2;ratioP2;P2;SDS_P1;SDS_P2;PMS_P1;PMS_P2;Temp;Humidity;BMP_temperature;BMP_pressure;BME280_temperature;BME280_humidity;BME280_pressure;Samples;Min_cycle;Max_cycle;Signal;HPM_P1;HPM_P2
2023/06/16 00:03:15;;;;;;;;;;;24.70;44.90;;;;;;10168019;28;93467;-65
2023/06/16 00:08:19;;;;;;;;;;;24.60;44.80;;;;;;10168239;28;93447;-64
2023/06/16 00:13:20;;;;;;;;;;;24.60;44.80;;;;;;10167371;28;93847;-64
2023/06/16 00:18:25;;;;;;;;;;;24.60;44.90;;;;;;10166417;28;95261;-64
2023/06/16 00:23:28;;;;;;;;;;;24.60;44.80;;;;;;10166371;28;94392;-64
2023/06/16 00:28:29;;;;;;;;;;;24.60;44.80;;;;;;10164501;28;96807;-64
2023/06/16 00:33:31;;;;;;;;;;;24.60;44.80;;;;;;10167006;28;94510;-64
2023/06/16 00:38:33;;;;;;;;;;;24.60;44.80;;;;;;10167030;28;94564;-64
2023/06/16 00:43:35;;;;;;;;;;;24.60;44.90;;;;;;10165958;28;93598;-64
2023/06/16 00:48:37;;;;;;;;;;;24.60;45.00;;;;;;10166074;28;93522;-66
2023/06/16 00:53:40;;;;;;;;;;;24.60;45.00;;;;;;10165316;28;93432;-66
2023/06/16 00:58:43;;;;;;;;;;;24.60;45.00;;;;;;10165449;28;93833;-66
2023/06/16 01:03:45;;;;;;;;;;;24.60;45.10;;;;;;10166341;28;92754;-66
2023/06/16 01:08:54;;;;;;;;;;;24.60;45.00;;;;;;10165024;28;93033;-64
2023/06/16 01:14:07;;;;;;;;;;;24.60;45.10;;;;;;10164287;28;93560;-65
2023/06/16 01:19:13;;;;;;;;;;;24.60;45.10;;;;;;10145807;28;96980;-64
2023/06/16 01:24:16;;;;;;;;;;;24.60;45.10;;;;;;10165282;28;93944;-64
2023/06/16 01:29:21;;;;;;;;;;;24.60;45.20;;;;;;10166383;28;92443;-64
2023/06/16 01:34:24;;;;;;;;;;;24.60;45.10;;;;;;10165923;28;93392;-64
2023/06/16 01:39:26;;;;;;;;;;;24.60;45.20;;;;;;10165817;28;94637;-64
2023/06/16 01:44:27;;;;;;;;;;;24.60;45.20;;;;;;10164153;28;92713;-64
2023/06/16 01:49:32;;;;;;;;;;;24.60;45.30;;;;;;10164316;28;94544;-64
2023/06/16 01:54:34;;;;;;;;;;;24.60;45.40;;;;;;10165891;28;91870;-63
2023/06/16 01:59:35;;;;;;;;;;;24.60;45.40;;;;;;10164960;28;94473;-64
2023/06/16 02:04:38;;;;;;;;;;;24.60;45.40;;;;;;10163777;28;93316;-64
2023/06/16 02:09:41;;;;;;;;;;;24.60;45.50;;;;;;10161960;28;96525;-64
2023/06/16 02:14:44;;;;;;;;;;;24.50;45.50;;;;;;10164329;28;94814;-64
2023/06/16 02:19:48;;;;;;;;;;;24.50;45.60;;;;;;10164218;28;93714;-64
2023/06/16 02:24:50;;;;;;;;;;;24.50;45.60;;;;;;10165615;28;93466;-64
2023/06/16 02:29:52;;;;;;;;;;;24.50;45.60;;;;;;10171368;28;94454;-64
2023/06/16 02:34:56;;;;;;;;;;;24.40;45.50;;;;;;10169634;28;93693;-64
2023/06/16 02:39:57;;;;;;;;;;;24.40;45.60;;;;;;10171750;28;94408;-64
2023/06/16 02:44:59;;;;;;;;;;;24.40;45.60;;;;;;10171517;28;93938;-65
2023/06/16 02:50:01;;;;;;;;;;;24.40;45.60;;;;;;10170250;28;92839;-64
2023/06/16 02:55:06;;;;;;;;;;;24.40;45.60;;;;;;10169843;28;93331;-65
2023/06/16 03:00:10;;;;;;;;;;;24.40;45.60;;;;;;10167267;28;96884;-65
2023/06/16 03:05:12;;;;;;;;;;;24.40;45.60;;;;;;10170167;28;93456;-64
2023/06/16 03:10:17;;;;;;;;;;;24.40;45.60;;;;;;10169502;28;94259;-64
2023/06/16 03:15:23;;;;;;;;;;;24.40;45.50;;;;;;10169395;28;93441;-64
2023/06/16 03:20:25;;;;;;;;;;;24.40;45.60;;;;;;10167394;28;94053;-64
2023/06/16 03:25:28;;;;;;;;;;;24.40;45.60;;;;;;10151845;28;93468;-64
2023/06/16 03:30:30;;;;;;;;;;;24.40;45.70;;;;;;10167352;28;94501;-64
2023/06/16 03:35:31;;;;;;;;;;;24.40;45.60;;;;;;10167709;28;92762;-64
2023/06/16 03:40:33;;;;;;;;;;;24.40;45.60;;;;;;10167259;28;93845;-64
2023/06/16 04:17:57;;;;;;;;;;;24.40;45.70;;;;;;10114384;28;94210;-64
2023/06/16 04:23:00;;;;;;;;;;;24.40;45.80;;;;;;10168304;28;92930;-63
2023/06/16 04:28:02;;;;;;;;;;;24.40;46.00;;;;;;10167142;28;94378;-64
2023/06/16 04:33:05;;;;;;;;;;;24.30;46.10;;;;;;10168140;28;93673;-64
2023/06/16 04:38:08;;;;;;;;;;;24.30;46.20;;;;;;10165039;28;93845;-64
2023/06/16 04:43:10;;;;;;;;;;;24.30;46.30;;;;;;10165243;28;93660;-63
2023/06/16 04:48:12;;;;;;;;;;;24.30;46.50;;;;;;10574454;22;96788;-68
2023/06/16 04:53:14;;;;;;;;;;;24.20;46.50;;;;;;10198141;28;93971;-68
2023/06/16 04:58:16;;;;;;;;;;;24.30;46.70;;;;;;10201726;28;94493;-68
2023/06/16 05:03:18;;;;;;;;;;;24.30;46.80;;;;;;10202034;28;94649;-68
2023/06/16 05:08:20;;;;;;;;;;;24.30;46.80;;;;;;10205434;28;93326;-69
2023/06/16 05:13:21;;;;;;;;;;;24.20;47.00;;;;;;10206284;28;94581;-68
2023/06/16 05:18:23;;;;;;;;;;;24.30;47.00;;;;;;10190325;28;94591;-67
2023/06/16 05:23:25;;;;;;;;;;;24.20;47.10;;;;;;10188937;28;92737;-66
2023/06/16 05:28:26;;;;;;;;;;;24.30;47.20;;;;;;10206100;28;93452;-66
2023/06/16 05:33:28;;;;;;;;;;;24.30;47.20;;;;;;10205149;28;94474;-66
2023/06/16 05:38:30;;;;;;;;;;;24.30;47.20;;;;;;10203397;28;96404;-65
2023/06/16 05:43:32;;;;;;;;;;;24.30;47.20;;;;;;10205010;28;92557;-67
2023/06/16 05:48:33;;;;;;;;;;;24.30;47.20;;;;;;10202833;28;92857;-66
2023/06/16 05:53:35;;;;;;;;;;;24.40;47.30;;;;;;10204933;28;93071;-66
2023/06/16 05:58:37;;;;;;;;;;;24.40;47.30;;;;;;10206827;28;94529;-67
2023/06/16 06:03:43;;;;;;;;;;;24.30;48.10;;;;;;10211930;28;93479;-66
2023/06/16 06:08:45;;;;;;;;;;;24.20;47.70;;;;;;10211647;28;94428;-68
2023/06/16 06:13:46;;;;;;;;;;;24.10;48.50;;;;;;10195016;28;93733;-68
2023/06/16 06:18:48;;;;;;;;;;;24.00;47.90;;;;;;10194139;28;94583;-69
2023/06/16 06:23:51;;;;;;;;;;;24.00;48.20;;;;;;10212316;28;94440;-68
2023/06/16 06:28:53;;;;;;;;;;;24.00;47.50;;;;;;10207785;28;96767;-68
2023/06/16 06:33:55;;;;;;;;;;;23.90;47.70;;;;;;10210696;28;94433;-68
2023/06/16 06:38:57;;;;;;;;;;;23.90;46.60;;;;;;10210682;28;94810;-69
2023/06/16 06:43:58;;;;;;;;;;;23.90;45.50;;;;;;10210785;28;94339;-68
2023/06/16 06:49:00;;;;;;;;;;;23.90;46.00;;;;;;10209956;28;93538;-68
2023/06/16 06:54:02;;;;;;;;;;;23.90;44.20;;;;;;10209648;28;93537;-68
2023/06/16 06:59:04;;;;;;;;;;;23.80;43.10;;;;;;10210563;28;92804;-68
2023/06/16 07:04:06;;;;;;;;;;;23.80;43.30;;;;;;10211105;28;93065;-68
2023/06/16 07:09:08;;;;;;;;;;;23.80;43.50;;;;;;10209969;28;94160;-67
2023/06/16 07:14:19;;;;;;;;;;;23.90;41.80;;;;;;10210240;28;93356;-68
2023/06/16 07:19:23;;;;;;;;;;;23.90;41.20;;;;;;10206042;28;95848;-69
2023/06/16 07:24:25;;;;;;;;;;;23.90;40.60;;;;;;10209102;28;93564;-68
2023/06/16 07:29:27;;;;;;;;;;;23.90;40.60;;;;;;10209226;28;93391;-68
2023/06/16 07:34:29;;;;;;;;;;;23.90;41.00;;;;;;10209560;28;92865;-69
2023/06/16 07:39:31;;;;;;;;;;;23.90;40.90;;;;;;10209935;28;92537;-67
2023/06/16 07:44:33;;;;;;;;;;;23.90;40.30;;;;;;10209508;28;92728;-67
2023/06/16 07:49:35;;;;;;;;;;;23.80;40.10;;;;;;10207719;28;94737;-67
2023/06/16 07:54:37;;;;;;;;;;;23.80;39.90;;;;;;10190284;28;93716;-67
2023/06/16 07:59:38;;;;;;;;;;;23.80;39.10;;;;;;10208451;28;92568;-68
2023/06/16 08:04:40;;;;;;;;;;;23.80;38.10;;;;;;10207109;28;93956;-68
2023/06/16 08:09:42;;;;;;;;;;;23.80;37.10;;;;;;10186189;28;95777;-67
2023/06/16 08:14:44;;;;;;;;;;;23.80;37.10;;;;;;10206741;28;93801;-68
2023/06/16 08:19:45;;;;;;;;;;;23.80;37.00;;;;;;10189746;28;93570;-67
2023/06/16 08:24:47;;;;;;;;;;;23.70;37.00;;;;;;10207559;28;93482;-68
2023/06/16 08:29:50;;;;;;;;;;;23.80;36.90;;;;;;10206796;28;93858;-68
2023/06/16 08:34:52;;;;;;;;;;;23.80;38.30;;;;;;10206993;28;94508;-67
2023/06/16 08:39:54;;;;;;;;;;;23.90;38.50;;;;;;10207238;28;94539;-68
2023/06/16 08:44:55;;;;;;;;;;;24.00;38.80;;;;;;10191399;28;94054;-67
2023/06/16 08:49:58;;;;;;;;;;;24.20;39.10;;;;;;10206016;28;93495;-67
2023/06/16 08:55:01;;;;;;;;;;;24.20;39.20;;;;;;10204481;28;95813;-65
2023/06/16 09:00:06;;;;;;;;;;;24.30;39.40;;;;;;10201395;28;95783;-65
2023/06/16 09:05:09;;;;;;;;;;;24.30;39.60;;;;;;10203130;28;94497;-65
2023/06/16 09:10:11;;;;;;;;;;;24.30;39.60;;;;;;10203076;28;94606;-65
2023/06/16 09:15:12;;;;;;;;;;;24.30;39.90;;;;;;10203371;28;94323;-65
2023/06/16 09:20:15;;;;;;;;;;;24.30;40.10;;;;;;10203210;28;93524;-65
2023/06/16 09:25:18;;;;;;;;;;;24.30;40.30;;;;;;10202779;28;92963;-64
2023/06/16 09:30:21;;;;;;;;;;;24.30;40.10;;;;;;10203591;28;94487;-66
2023/06/16 09:35:24;;;;;;;;;;;24.30;40.50;;;;;;10208844;28;93350;-65
2023/06/16 09:40:26;;;;;;;;;;;24.30;40.70;;;;;;10212174;28;93423;-65
2023/06/16 09:45:31;;;;;;;;;;;24.30;40.60;;;;;;10209846;28;93859;-66
2023/06/16 09:50:33;;;;;;;;;;;24.30;40.60;;;;;;10142339;28;1892980;-66
2023/06/16 09:55:37;;;;;;;;;;;24.30;40.90;;;;;;10212172;28;93347;-65
2023/06/16 10:00:39;;;;;;;;;;;24.30;41.00;;;;;;10212364;28;94486;-66
2023/06/16 10:05:44;;;;;;;;;;;24.40;40.80;;;;;;10211690;28;93172;-65
2023/06/16 10:10:47;;;;;;;;;;;24.50;40.90;;;;;;10212054;28;95398;-65
2023/06/16 10:15:50;;;;;;;;;;;24.60;40.70;;;;;;10212218;28;93338;-67
2023/06/16 10:20:52;;;;;;;;;;;24.60;40.60;;;;;;10194642;28;92917;-65
2023/06/16 10:25:54;;;;;;;;;;;24.70;40.50;;;;;;10212670;28;93704;-66
2023/06/16 10:30:56;;;;;;;;;;;24.80;40.50;;;;;;10211915;28;94011;-68
2023/06/16 10:36:01;;;;;;;;;;;24.80;40.50;;;;;;10209598;28;93838;-67
2023/06/16 10:41:22;;;;;;;;;;;24.80;40.50;;;;;;10208635;28;96061;-68
2023/06/16 10:46:24;;;;;;;;;;;24.80;40.50;;;;;;10209494;28;92884;-67
2023/06/16 10:51:44;;;;;;;;;;;24.90;40.50;;;;;;10210392;28;92638;-68
2023/06/16 10:57:05;;;;;;;;;;;24.90;40.50;;;;;;10210268;28;94508;-67
2023/06/16 11:02:16;;;;;;;;;;;24.90;40.60;;;;;;10192710;28;92963;-67
2023/06/16 11:07:18;;;;;;;;;;;24.90;40.70;;;;;;10210433;28;94545;-67
2023/06/16 11:12:26;;;;;;;;;;;24.90;40.60;;;;;;10209098;28;93032;-67
2023/06/16 11:17:28;;;;;;;;;;;24.90;40.60;;;;;;10209791;28;93147;-67
2023/06/16 11:22:31;;;;;;;;;;;24.90;40.90;;;;;;10209485;28;94609;-68
2023/06/16 11:27:32;;;;;;;;;;;24.90;41.00;;;;;;10190716;28;93524;-68
2023/06/16 11:32:34;;;;;;;;;;;24.90;41.00;;;;;;10205929;28;95993;-69
2023/06/16 11:37:50;;;;;;;;;;;24.90;41.20;;;;;;10191061;28;94564;-69
2023/06/16 11:43:02;;;;;;;;;;;24.90;41.40;;;;;;10208768;28;94473;-70
2023/06/16 11:48:05;;;;;;;;;;;24.90;41.50;;;;;;10207604;28;94864;-69
2023/06/16 11:53:11;;;;;;;;;;;24.90;41.40;;;;;;10190985;28;93684;-70
2023/06/16 11:58:13;;;;;;;;;;;24.90;41.20;;;;;;10207841;28;93143;-68
2023/06/16 12:03:15;;;;;;;;;;;24.90;41.50;;;;;;10208187;28;93685;-68
2023/06/16 12:08:36;;;;;;;;;;;24.80;41.30;;;;;;10207843;28;92667;-69
2023/06/16 12:13:38;;;;;;;;;;;24.90;41.20;;;;;;10207224;28;94495;-69
2023/06/16 12:18:40;;;;;;;;;;;24.80;41.40;;;;;;10207108;28;94560;-69
2023/06/16 12:23:45;;;;;;;;;;;24.80;41.40;;;;;;10204765;28;96909;-70
2023/06/16 12:28:51;;;;;;;;;;;24.90;44.50;;;;;;10206610;28;94765;-70
2023/06/16 12:33:53;;;;;;;;;;;24.90;42.60;;;;;;10207223;28;93521;-71
2023/06/16 12:38:57;;;;;;;;;;;24.90;38.50;;;;;;10206141;28;94150;-71
2023/06/16 12:43:59;;;;;;;;;;;24.80;37.60;;;;;;10206791;28;93612;-71
2023/06/16 12:49:01;;;;;;;;;;;24.80;37.30;;;;;;10206238;28;94507;-71
2023/06/16 12:54:03;;;;;;;;;;;24.80;38.00;;;;;;10206806;28;93859;-70
2023/06/16 12:59:05;;;;;;;;;;;24.80;39.10;;;;;;10207728;28;93774;-70
2023/06/16 13:04:06;;;;;;;;;;;24.80;39.00;;;;;;10189105;28;94535;-70
2023/06/16 13:09:08;;;;;;;;;;;24.80;38.30;;;;;;10206381;28;94518;-70
2023/06/16 13:14:12;;;;;;;;;;;24.70;37.80;;;;;;10203374;28;95185;-71
2023/06/16 13:19:14;;;;;;;;;;;24.70;38.20;;;;;;10204584;28;94613;-72
2023/06/16 13:24:16;;;;;;;;;;;24.70;37.50;;;;;;10188243;28;94605;-72
2023/06/16 13:29:19;;;;;;;;;;;24.70;37.10;;;;;;10188299;28;93849;-71
2023/06/16 13:34:21;;;;;;;;;;;24.70;36.90;;;;;;10205403;28;93364;-71
2023/06/16 13:39:23;;;;;;;;;;;24.70;37.60;;;;;;10205086;28;93663;-72
2023/06/16 13:44:24;;;;;;;;;;;24.70;37.50;;;;;;10187726;28;94799;-72
2023/06/16 13:49:26;;;;;;;;;;;24.70;37.20;;;;;;10205032;28;92814;-73
2023/06/16 13:54:28;;;;;;;;;;;24.60;37.50;;;;;;10188245;28;93244;-72
2023/06/16 13:59:30;;;;;;;;;;;24.60;37.80;;;;;;10203708;28;93468;-72
2023/06/16 14:04:32;;;;;;;;;;;24.60;37.90;;;;;;10203147;28;97166;-71
2023/06/16 14:09:34;;;;;;;;;;;24.60;37.80;;;;;;10203392;28;94373;-72
2023/06/16 14:14:36;;;;;;;;;;;24.60;38.10;;;;;;10203741;28;94160;-72
2023/06/16 14:19:37;;;;;;;;;;;24.60;38.40;;;;;;10188998;28;93938;-72
2023/06/16 14:24:39;;;;;;;;;;;24.60;39.00;;;;;;10210483;28;94418;-72
2023/06/16 14:29:41;;;;;;;;;;;24.50;38.80;;;;;;10209119;28;93529;-70
2023/06/16 14:34:43;;;;;;;;;;;24.50;38.90;;;;;;10210322;28;93539;-71
2023/06/16 14:39:44;;;;;;;;;;;24.60;39.20;;;;;;10211009;28;93530;-71
2023/06/16 14:44:46;;;;;;;;;;;24.60;39.20;;;;;;10210461;28;93835;-68
2023/06/16 14:49:48;;;;;;;;;;;24.60;39.50;;;;;;10209153;28;94877;-69
2023/06/16 14:54:50;;;;;;;;;;;24.60;39.40;;;;;;10189461;28;95863;-67
2023/06/16 14:59:52;;;;;;;;;;;24.60;39.00;;;;;;10192610;28;94596;-67
2023/06/16 15:04:53;;;;;;;;;;;24.60;39.20;;;;;;10192616;28;93654;-68
2023/06/16 15:09:55;;;;;;;;;;;24.50;38.40;;;;;;10210192;28;94530;-67
2023/06/16 15:14:57;;;;;;;;;;;24.50;38.20;;;;;;10209677;28;94380;-67
2023/06/16 15:19:58;;;;;;;;;;;24.40;38.50;;;;;;10209301;28;94867;-67
2023/06/16 15:25:00;;;;;;;;;;;24.40;39.10;;;;;;10208772;28;94549;-67
2023/06/16 15:30:02;;;;;;;;;;;24.50;39.70;;;;;;10208613;28;93773;-67
2023/06/16 15:35:04;;;;;;;;;;;24.50;39.40;;;;;;10208992;28;94463;-66
2023/06/16 15:40:06;;;;;;;;;;;24.60;40.70;;;;;;10208904;28;93043;-67
2023/06/16 15:45:08;;;;;;;;;;;24.70;42.30;;;;;;10205209;28;95916;-68
2023/06/16 15:50:09;;;;;;;;;;;24.80;42.90;;;;;;10208413;28;94986;-66
2023/06/16 15:55:11;;;;;;;;;;;25.00;43.20;;;;;;10190436;28;93600;-66
2023/06/16 16:00:13;;;;;;;;;;;25.00;43.30;;;;;;10209085;28;94474;-68
2023/06/16 16:05:15;;;;;;;;;;;25.10;41.10;;;;;;10208322;28;92954;-68
2023/06/16 16:10:17;;;;;;;;;;;25.10;40.10;;;;;;10206380;28;94144;-67
2023/06/16 16:15:19;;;;;;;;;;;25.00;39.80;;;;;;10206457;28;93604;-67
2023/06/16 16:20:21;;;;;;;;;;;25.00;40.00;;;;;;10208261;28;92794;-68
2023/06/16 16:25:23;;;;;;;;;;;25.00;40.00;;;;;;10206270;28;94737;-68
2023/06/16 16:30:25;;;;;;;;;;;24.90;39.60;;;;;;10207163;28;94528;-68
2023/06/16 16:35:27;;;;;;;;;;;24.90;40.40;;;;;;10204183;28;95838;-68
2023/06/16 16:40:29;;;;;;;;;;;24.80;39.90;;;;;;10206767;28;94615;-68
2023/06/16 16:45:31;;;;;;;;;;;24.80;40.00;;;;;;10206281;28;93515;-68
2023/06/16 16:50:33;;;;;;;;;;;24.80;40.10;;;;;;10189032;28;94747;-68
2023/06/16 16:55:34;;;;;;;;;;;24.90;40.30;;;;;;10205562;28;92599;-69
2023/06/16 17:00:37;;;;;;;;;;;24.90;40.40;;;;;;10206747;28;94486;-68
2023/06/16 17:05:39;;;;;;;;;;;24.90;40.40;;;;;;10205573;28;93510;-68
2023/06/16 17:10:41;;;;;;;;;;;24.90;40.20;;;;;;10207678;28;93049;-67
2023/06/16 17:15:43;;;;;;;;;;;24.90;40.30;;;;;;10205836;28;93507;-67
2023/06/16 17:20:45;;;;;;;;;;;24.90;40.40;;;;;;10205200;28;94421;-68
2023/06/16 17:25:47;;;;;;;;;;;25.00;40.20;;;;;;10203002;28;96963;-68
2023/06/16 17:30:48;;;;;;;;;;;25.00;40.20;;;;;;10205473;28;93630;-68
2023/06/16 17:35:52;;;;;;;;;;;25.00;40.10;;;;;;10187513;28;94581;-68
2023/06/16 17:40:55;;;;;;;;;;;25.00;40.00;;;;;;10205517;28;94574;-67
2023/06/16 17:45:56;;;;;;;;;;;25.10;40.00;;;;;;10205967;28;94501;-68
2023/06/16 17:50:58;;;;;;;;;;;25.10;40.00;;;;;;10204817;28;94625;-69
2023/06/16 17:56:03;;;;;;;;;;;25.10;39.80;;;;;;10191071;28;94033;-67
2023/06/16 18:01:05;;;;;;;;;;;25.10;39.50;;;;;;10213637;28;92686;-68
2023/06/16 18:06:07;;;;;;;;;;;25.20;39.60;;;;;;10211444;28;94634;-67
2023/06/16 18:11:09;;;;;;;;;;;25.20;39.60;;;;;;10211602;28;94213;-68
2023/06/16 18:16:11;;;;;;;;;;;25.30;39.70;;;;;;10208945;28;96842;-67
2023/06/16 18:21:15;;;;;;;;;;;25.30;39.70;;;;;;10212039;28;94456;-68
2023/06/16 18:26:17;;;;;;;;;;;25.30;39.60;;;;;;10193124;28;93404;-68
2023/06/16 18:31:19;;;;;;;;;;;25.30;39.50;;;;;;10210257;28;94574;-68
2023/06/16 18:36:21;;;;;;;;;;;25.30;39.40;;;;;;10210039;28;94508;-68
2023/06/16 18:41:23;;;;;;;;;;;25.30;40.30;;;;;;10210928;28;93693;-68
2023/06/16 18:46:25;;;;;;;;;;;25.20;39.00;;;;;;10192404;28;93728;-66
2023/06/16 18:51:27;;;;;;;;;;;25.00;39.20;;;;;;10209954;28;92779;-65
2023/06/16 18:56:29;;;;;;;;;;;25.00;39.40;;;;;;10191865;28;93595;-65
2023/06/16 19:01:31;;;;;;;;;;;24.90;39.70;;;;;;10192652;28;93823;-65
2023/06/16 19:06:33;;;;;;;;;;;24.90;39.70;;;;;;10206521;28;95802;-64
2023/06/16 19:11:34;;;;;;;;;;;24.90;38.90;;;;;;10192394;28;94424;-65
2023/06/16 19:16:36;;;;;;;;;;;24.80;39.00;;;;;;10208925;28;93671;-65
2023/06/16 19:21:38;;;;;;;;;;;24.80;39.10;;;;;;10209326;28;94239;-66
2023/06/16 19:26:40;;;;;;;;;;;24.80;39.40;;;;;;10209237;28;92855;-65
2023/06/16 19:31:43;;;;;;;;;;;24.80;40.80;;;;;;10190971;28;94528;-65
2023/06/16 19:36:45;;;;;;;;;;;24.80;39.90;;;;;;10209677;28;94194;-65
2023/06/16 19:41:47;;;;;;;;;;;24.80;40.10;;;;;;10208290;28;92793;-65
2023/06/16 19:46:48;;;;;;;;;;;24.80;40.20;;;;;;10208075;28;93699;-65
2023/06/16 19:51:51;;;;;;;;;;;24.80;40.30;;;;;;10207525;28;93307;-66
2023/06/16 19:56:53;;;;;;;;;;;24.80;40.50;;;;;;10205077;28;95939;-66
2023/06/16 20:01:55;;;;;;;;;;;24.90;40.70;;;;;;10207837;28;93530;-65
2023/06/16 20:06:57;;;;;;;;;;;24.80;40.70;;;;;;10206484;28;93899;-61
2023/06/16 20:11:58;;;;;;;;;;;24.80;40.80;;;;;;10207043;28;94607;-61
2023/06/16 20:17:00;;;;;;;;;;;24.90;41.00;;;;;;10206605;28;93559;-62
2023/06/16 20:22:02;;;;;;;;;;;24.80;41.20;;;;;;10205876;28;93564;-61
2023/06/16 20:27:04;;;;;;;;;;;24.80;41.20;;;;;;10206650;28;93688;-65
2023/06/16 20:32:06;;;;;;;;;;;24.80;41.30;;;;;;10208360;28;93753;-65
2023/06/16 20:37:08;;;;;;;;;;;24.80;41.60;;;;;;10207374;28;94498;-66
2023/06/16 20:42:09;;;;;;;;;;;24.80;42.60;;;;;;10207017;28;92645;-68
2023/06/16 20:47:12;;;;;;;;;;;24.80;41.60;;;;;;10203619;28;95789;-69
2023/06/16 20:52:14;;;;;;;;;;;24.80;41.90;;;;;;10206459;28;94480;-70
2023/06/16 20:57:15;;;;;;;;;;;24.80;42.00;;;;;;10206962;28;93530;-69
2023/06/16 21:02:18;;;;;;;;;;;24.80;42.10;;;;;;10206382;28;94607;-69
2023/06/16 21:07:23;;;;;;;;;;;24.70;42.00;;;;;;10205765;28;94584;-68
2023/06/16 21:12:25;;;;;;;;;;;24.70;42.10;;;;;;10205911;28;94667;-69
2023/06/16 21:17:27;;;;;;;;;;;24.70;42.20;;;;;;10188859;28;94647;-69
2023/06/16 21:22:29;;;;;;;;;;;24.70;42.30;;;;;;10188527;28;92649;-69
2023/06/16 21:27:31;;;;;;;;;;;24.70;42.50;;;;;;10188942;28;93483;-69
2023/06/16 21:32:33;;;;;;;;;;;24.60;42.50;;;;;;10212408;28;94113;-69
2023/06/16 21:37:35;;;;;;;;;;;24.60;42.60;;;;;;10209946;28;97294;-70
2023/06/16 21:42:38;;;;;;;;;;;24.60;42.70;;;;;;10193895;28;93622;-69
2023/06/16 21:47:39;;;;;;;;;;;24.60;42.80;;;;;;10212027;28;93573;-69
2023/06/16 21:52:41;;;;;;;;;;;24.60;42.90;;;;;;10210881;28;94398;-69
2023/06/16 21:57:43;;;;;;;;;;;24.60;43.00;;;;;;10210706;28;93691;-70
2023/06/16 22:02:45;;;;;;;;;;;24.60;43.10;;;;;;10211645;28;92850;-70
2023/06/16 22:07:50;;;;;;;;;;;24.60;43.10;;;;;;10211957;28;93321;-69
2023/06/16 22:12:52;;;;;;;;;;;24.60;43.20;;;;;;10195388;28;91936;-69
2023/06/16 22:17:53;;;;;;;;;;;24.60;43.30;;;;;;10212018;28;93557;-69
2023/06/16 22:22:56;;;;;;;;;;;24.60;43.40;;;;;;10211657;28;93654;-69
2023/06/16 22:27:57;;;;;;;;;;;24.60;43.50;;;;;;10208015;28;97151;-69
2023/06/16 22:33:00;;;;;;;;;;;24.60;43.50;;;;;;10212294;28;93748;-69
2023/06/16 22:38:02;;;;;;;;;;;24.60;43.60;;;;;;10210088;28;93430;-69
2023/06/16 22:43:04;;;;;;;;;;;24.60;43.70;;;;;;10209529;28;92907;-69
2023/06/16 22:48:07;;;;;;;;;;;24.60;43.70;;;;;;10210120;28;94482;-70
2023/06/16 22:53:09;;;;;;;;;;;24.60;43.70;;;;;;10209612;28;94093;-69
2023/06/16 22:58:10;;;;;;;;;;;24.60;43.70;;;;;;10210308;28;93546;-69
2023/06/16 23:03:12;;;;;;;;;;;24.60;43.70;;;;;;10210800;28;93678;-69
2023/06/16 23:08:14;;;;;;;;;;;24.60;43.70;;;;;;10192206;28;94796;-69
2023/06/16 23:13:16;;;;;;;;;;;24.60;43.90;;;;;;10210429;28;93659;-69
2023/06/16 23:18:17;;;;;;;;;;;24.60;43.90;;;;;;10206641;28;95961;-69
2023/06/16 23:23:19;;;;;;;;;;;24.60;43.90;;;;;;10209832;28;94492;-69
2023/06/16 23:28:24;;;;;;;;;;;24.60;43.90;;;;;;10208733;28;94590;-69
2023/06/16 23:33:27;;;;;;;;;;;24.60;44.00;;;;;;10208783;28;93475;-69
2023/06/16 23:38:31;;;;;;;;;;;24.50;44.00;;;;;;10208335;28;93897;-69
2023/06/16 23:43:33;;;;;;;;;;;24.50;44.00;;;;;;10207467;28;94008;-69
2023/06/16 23:48:35;;;;;;;;;;;24.50;44.10;;;;;;10190702;28;94418;-69
2023/06/16 23:53:36;;;;;;;;;;;24.50;44.20;;;;;;10208401;28;93865;-70
2023/06/16 23:58:38;;;;;;;;;;;24.50;44.20;;;;;;10208285;28;94318;-69
